createdAt,value
2023-04-05T00:01:33.929Z,8.73
2023-04-05T00:03:38.502Z,9.13
2023-04-05T00:05:41.684Z,10.50
2023-04-05T00:07:48.154Z,8.65
2023-04-05T00:09:51.265Z,12.27
2023-04-05T00:11:54.360Z,8.75
2023-04-05T00:13:58.065Z,10.75
2023-04-05T00:16:01.473Z,9.65
2023-04-05T00:18:04.803Z,9.05
2023-04-05T00:20:11.285Z,9.63
2023-04-05T00:22:14.414Z,9.60
2023-04-05T00:24:17.496Z,10.98
2023-04-05T00:26:21.143Z,9.73
2023-04-05T00:28:29.220Z,9.27
2023-04-05T00:30:33.598Z,10.80
2023-04-05T00:32:37.126Z,9.98
2023-04-05T00:34:40.429Z,10.02
2023-04-05T00:36:44.926Z,11.02
2023-04-05T00:38:49.674Z,9.00
2023-04-05T00:40:52.736Z,9.15
2023-04-05T00:42:55.859Z,8.40
2023-04-05T00:44:59.090Z,8.90
2023-04-05T00:47:03.008Z,7.50
2023-04-05T00:49:06.234Z,10.13
2023-04-05T00:51:11.810Z,10.40
2023-04-05T00:53:19.514Z,8.63
2023-04-05T00:55:22.739Z,9.35
2023-04-05T00:57:26.437Z,8.15
2023-04-05T00:59:30.031Z,6.72
2023-04-05T01:01:34.437Z,7.05
2023-04-05T01:03:39.662Z,6.43
2023-04-05T01:05:47.174Z,9.55
2023-04-05T01:07:53.588Z,6.95
2023-04-05T01:09:59.824Z,10.18
2023-04-05T01:12:07.125Z,7.55
2023-04-05T01:14:11.051Z,7.43
2023-04-05T01:16:14.257Z,8.88
2023-04-05T01:18:17.385Z,7.13
2023-04-05T01:20:22.889Z,8.38
2023-04-05T01:22:55.510Z,10.18
2023-04-05T01:25:19.485Z,9.65
2023-04-05T01:27:24.106Z,11.63
2023-04-05T01:29:45.981Z,10.65
2023-04-05T01:31:51.779Z,9.70
2023-04-05T01:34:00.672Z,10.93
2023-04-05T01:36:10.349Z,9.35
2023-04-05T01:38:17.794Z,7.85
2023-04-05T01:40:21.589Z,10.82
2023-04-05T01:42:26.233Z,10.98
2023-04-05T01:44:30.950Z,9.45
2023-04-05T01:46:34.167Z,11.43
2023-04-05T01:48:37.337Z,11.38
2023-04-05T01:50:40.740Z,12.55
2023-04-05T01:52:43.844Z,13.23
2023-04-05T01:54:46.903Z,11.07
2023-04-05T01:56:49.970Z,11.20
2023-04-05T01:58:53.124Z,10.90
2023-04-05T02:00:58.080Z,10.45
2023-04-05T02:03:01.349Z,17.35
2023-04-05T02:05:04.578Z,12.43
2023-04-05T02:07:07.670Z,10.70
2023-04-05T02:09:10.994Z,13.02
2023-04-05T02:11:14.050Z,12.20
2023-04-05T02:13:17.135Z,14.40
2023-04-05T02:15:20.216Z,12.45
2023-04-05T02:17:24.688Z,11.32
2023-04-05T02:19:29.854Z,12.00
2023-04-05T02:21:32.919Z,13.50
2023-04-05T02:23:36.246Z,11.07
2023-04-05T02:25:39.441Z,14.43
2023-04-05T02:27:42.525Z,12.68
2023-04-05T02:29:45.720Z,12.18
2023-04-05T02:31:50.970Z,12.38
2023-04-05T02:33:56.053Z,11.40
2023-04-05T02:35:59.157Z,12.10
2023-04-05T02:38:02.376Z,14.32
2023-04-05T02:40:09.343Z,11.45
2023-04-05T02:42:15.471Z,12.25
2023-04-05T02:44:18.495Z,14.57
2023-04-05T02:46:21.866Z,13.63
2023-04-05T02:48:25.306Z,14.25
2023-04-05T02:50:30.581Z,12.98
2023-04-05T02:52:34.281Z,17.40
2023-04-05T02:54:37.572Z,12.52
2023-04-05T02:56:40.672Z,12.45
2023-04-05T02:58:49.362Z,21.27
2023-04-05T03:00:57.396Z,15.07
2023-04-05T03:03:06.665Z,12.02
2023-04-05T03:05:18.663Z,10.05
2023-04-05T03:07:27.801Z,13.82
2023-04-05T03:09:33.685Z,12.60
2023-04-05T03:11:41.615Z,15.93
2023-04-05T03:13:45.392Z,12.25
2023-04-05T03:15:56.491Z,11.93
2023-04-05T03:18:01.690Z,12.95
2023-04-05T03:20:08.842Z,15.40
2023-04-05T03:22:12.267Z,12.43
2023-04-05T03:24:17.078Z,13.15
2023-04-05T03:26:20.622Z,14.10
2023-04-05T03:28:27.291Z,10.88
2023-04-05T03:30:35.624Z,14.88
2023-04-05T03:32:50.196Z,18.50
2023-04-05T03:35:10.804Z,12.65
2023-04-05T03:37:14.872Z,13.57
2023-04-05T03:39:24.966Z,12.90
2023-04-05T03:41:28.668Z,12.77
2023-04-05T03:43:33.108Z,16.50
2023-04-05T03:45:36.238Z,13.23
2023-04-05T03:47:38.604Z,12.77
2023-04-05T03:49:43.388Z,14.00
2023-04-05T03:51:47.127Z,13.88
2023-04-05T03:53:50.642Z,11.57
2023-04-05T03:55:55.793Z,13.85
2023-04-05T03:58:16.794Z,15.55
2023-04-05T04:00:20.511Z,11.68
2023-04-05T04:02:39.399Z,13.25
2023-04-05T04:04:42.561Z,12.63
2023-04-05T04:06:45.758Z,14.85
2023-04-05T04:08:50.714Z,11.73
2023-04-05T04:10:55.256Z,13.18
2023-04-05T04:13:04.427Z,12.27
2023-04-05T04:15:10.751Z,18.70
2023-04-05T04:17:28.492Z,15.07
2023-04-05T04:19:50.336Z,12.70
2023-04-05T04:22:22.723Z,14.05
2023-04-05T04:24:27.362Z,13.05
2023-04-05T04:26:37.843Z,14.50
2023-04-05T04:29:07.345Z,13.32
2023-04-05T04:31:22.996Z,15.35
2023-04-05T04:33:51.074Z,13.20
2023-04-05T04:36:26.632Z,18.45
2023-04-05T04:38:54.747Z,13.80
2023-04-05T04:41:02.603Z,13.95
2023-04-05T04:43:27.806Z,14.55
2023-04-05T04:45:57.007Z,14.85
2023-04-05T04:48:23.607Z,16.27
2023-04-05T04:50:33.167Z,12.80
2023-04-05T04:52:36.197Z,14.65
2023-04-05T04:54:42.517Z,15.05
2023-04-05T04:56:45.622Z,13.48
2023-04-05T04:58:52.599Z,14.13
2023-04-05T05:00:57.229Z,13.85
2023-04-05T05:03:00.828Z,12.52
2023-04-05T05:05:04.429Z,13.20
2023-04-05T05:07:07.500Z,12.27
2023-04-05T05:09:10.789Z,12.68
2023-04-05T05:11:22.506Z,17.63
2023-04-05T05:13:25.743Z,13.95
2023-04-05T05:15:30.371Z,15.48
2023-04-05T05:17:34.763Z,13.70
2023-04-05T05:19:37.853Z,15.05
2023-04-05T05:21:40.874Z,13.18
2023-04-05T05:23:44.058Z,15.90
2023-04-05T05:25:47.161Z,11.85
2023-04-05T05:27:52.020Z,11.73
2023-04-05T05:29:57.868Z,13.43
2023-04-05T05:32:02.349Z,15.68
2023-04-05T05:34:06.391Z,14.77
2023-04-05T05:36:10.134Z,13.98
2023-04-05T05:38:13.977Z,15.77
2023-04-05T05:40:17.255Z,13.65
2023-04-05T05:42:21.234Z,14.75
2023-04-05T05:44:24.354Z,24.05
2023-04-05T05:46:27.674Z,14.88
2023-04-05T05:48:33.297Z,16.75
2023-04-05T05:50:36.330Z,14.15
2023-04-05T05:52:39.657Z,18.58
2023-04-05T05:54:42.738Z,16.42
2023-04-05T05:56:45.850Z,13.07
2023-04-05T05:58:49.247Z,14.77
2023-04-05T06:00:56.907Z,14.07
2023-04-05T06:03:00.177Z,14.30
2023-04-05T06:05:05.176Z,12.75
2023-04-05T06:07:08.278Z,15.63
2023-04-05T06:09:11.551Z,13.68
2023-04-05T06:11:18.866Z,15.98
2023-04-05T06:13:21.867Z,13.75
2023-04-05T06:15:24.934Z,16.05
2023-04-05T06:17:28.530Z,15.63
2023-04-05T06:19:31.814Z,17.70
2023-04-05T06:21:36.239Z,17.20
2023-04-05T06:23:41.060Z,14.10
2023-04-05T06:25:44.639Z,15.85
2023-04-05T06:27:47.745Z,15.60
2023-04-05T06:29:50.711Z,15.38
2023-04-05T06:31:54.281Z,18.90
2023-04-05T06:33:57.359Z,14.52
2023-04-05T06:36:00.566Z,13.52
2023-04-05T06:38:05.028Z,13.43
2023-04-05T06:40:09.542Z,13.60
2023-04-05T06:42:12.648Z,12.32
2023-04-05T06:44:21.805Z,12.88
2023-04-05T06:46:25.073Z,11.00
2023-04-05T06:48:29.285Z,11.82
2023-04-05T06:50:32.419Z,10.75
2023-04-05T06:52:36.244Z,10.93
2023-04-05T06:54:40.675Z,18.92
2023-04-05T06:56:43.701Z,11.48
2023-04-05T06:58:46.914Z,12.52
2023-04-05T07:00:50.183Z,12.70
2023-04-05T07:02:53.441Z,13.20
2023-04-05T07:05:00.689Z,11.10
2023-04-05T07:07:03.820Z,10.27
2023-04-05T07:09:07.235Z,12.55
2023-04-05T07:11:11.824Z,10.43
2023-04-05T07:13:15.142Z,11.52
2023-04-05T07:15:18.533Z,12.27
2023-04-05T07:17:21.784Z,8.95
2023-04-05T07:19:24.907Z,11.48
2023-04-05T07:21:28.211Z,12.82
2023-04-05T07:23:31.466Z,11.25
2023-04-05T07:25:34.865Z,10.27
2023-04-05T07:27:39.782Z,9.13
2023-04-05T07:29:44.600Z,11.30
2023-04-05T07:31:49.005Z,11.35
2023-04-05T07:33:52.059Z,10.68
2023-04-05T07:35:55.495Z,10.68
2023-04-05T07:37:58.824Z,10.02
2023-04-05T07:40:01.982Z,8.75
2023-04-05T07:42:05.161Z,9.82
2023-04-05T07:44:09.635Z,11.30
2023-04-05T07:46:12.773Z,10.30
2023-04-05T07:48:15.900Z,9.38
2023-04-05T07:50:19.150Z,11.83
2023-04-05T07:52:22.275Z,9.83
2023-04-05T07:54:25.332Z,9.87
2023-04-05T07:56:28.444Z,10.52
2023-04-05T07:58:32.508Z,9.40
2023-04-05T08:00:37.091Z,9.90
2023-04-05T08:02:40.300Z,8.60
2023-04-05T08:04:43.493Z,8.93
2023-04-05T08:06:47.178Z,8.70
2023-04-05T08:08:50.347Z,9.53
2023-04-05T08:10:53.618Z,8.13
2023-04-05T08:12:56.675Z,9.27
2023-04-05T08:14:59.707Z,8.60
2023-04-05T08:17:04.161Z,8.37
2023-04-05T08:19:07.339Z,10.40
2023-04-05T08:21:10.502Z,8.37
2023-04-05T08:23:13.651Z,8.93
2023-04-05T08:25:16.808Z,7.93
2023-04-05T08:27:19.866Z,9.63
2023-04-05T08:29:23.062Z,8.03
2023-04-05T08:31:26.665Z,8.67
2023-04-05T08:33:31.454Z,8.77
2023-04-05T08:35:36.959Z,9.17
2023-04-05T08:37:40.171Z,9.07
2023-04-05T08:39:43.218Z,8.40
2023-04-05T08:41:51.873Z,8.50
2023-04-05T08:43:59.022Z,8.47
2023-04-05T08:46:02.530Z,8.00
2023-04-05T08:48:06.008Z,8.53
2023-04-05T08:50:13.752Z,9.97
2023-04-05T08:52:17.228Z,10.97
2023-04-05T08:54:20.265Z,9.43
2023-04-05T08:56:27.006Z,8.70
2023-04-05T08:58:34.137Z,8.93
2023-04-05T09:00:37.320Z,9.37
2023-04-05T09:02:41.299Z,12.73
2023-04-05T09:04:45.634Z,9.07
2023-04-05T09:06:51.543Z,9.10
2023-04-05T09:08:55.066Z,8.90
2023-04-05T09:10:58.204Z,9.60
2023-04-05T09:13:03.536Z,8.93
2023-04-05T09:15:07.647Z,8.80
2023-04-05T09:17:11.152Z,8.13
2023-04-05T09:19:14.812Z,9.60
2023-04-05T09:21:18.299Z,8.30
2023-04-05T09:23:22.789Z,8.63
2023-04-05T09:25:36.378Z,8.80
2023-04-05T09:27:55.423Z,8.73
2023-04-05T09:29:58.490Z,8.80
2023-04-05T09:32:02.735Z,8.30
2023-04-05T09:34:06.441Z,10.63
2023-04-05T09:36:10.020Z,9.00
2023-04-05T09:38:13.236Z,8.20
2023-04-05T09:40:17.738Z,8.13
2023-04-05T09:42:22.948Z,9.27
2023-04-05T09:44:26.452Z,9.00
2023-04-05T09:46:34.473Z,7.93
2023-04-05T09:48:47.369Z,7.93
2023-04-05T09:50:50.764Z,8.27
2023-04-05T09:53:06.987Z,7.83
2023-04-05T09:55:11.003Z,8.80
2023-04-05T09:57:17.021Z,8.10
2023-04-05T09:59:20.182Z,7.70
2023-04-05T10:01:23.437Z,10.00
2023-04-05T10:03:27.432Z,8.17
2023-04-05T10:05:32.674Z,10.03
2023-04-05T10:07:36.023Z,8.53
2023-04-05T10:09:39.460Z,7.77
2023-04-05T10:11:43.598Z,10.50
2023-04-05T10:13:48.650Z,6.93
2023-04-05T10:15:55.596Z,7.93
2023-04-05T10:18:04.029Z,7.40
2023-04-05T10:20:16.292Z,7.97
2023-04-05T10:22:25.816Z,7.57
2023-04-05T10:24:36.697Z,9.10
2023-04-05T10:26:46.706Z,7.37
2023-04-05T10:28:53.803Z,8.27
2023-04-05T10:31:02.198Z,9.50
2023-04-05T10:33:12.981Z,8.40
2023-04-05T10:35:18.212Z,8.30
2023-04-05T10:37:29.827Z,8.60
2023-04-05T10:39:36.106Z,7.17
2023-04-05T10:41:43.621Z,7.70
2023-04-05T10:43:47.621Z,9.77
2023-04-05T10:45:54.579Z,6.67
2023-04-05T10:48:02.198Z,7.10
2023-04-05T10:50:06.426Z,7.50
2023-04-05T10:52:09.595Z,7.67
2023-04-05T10:54:12.769Z,7.37
2023-04-05T10:56:15.990Z,7.13
2023-04-05T10:58:19.515Z,9.00
2023-04-05T11:00:24.079Z,6.93
2023-04-05T11:02:29.805Z,7.43
2023-04-05T11:04:34.667Z,7.23
2023-04-05T11:06:37.872Z,8.30
2023-04-05T11:08:42.955Z,7.00
2023-04-05T11:10:53.561Z,6.97
2023-04-05T11:13:07.818Z,6.83
2023-04-05T11:15:30.082Z,7.20
2023-04-05T11:17:34.626Z,7.20
2023-04-05T11:19:52.256Z,7.17
2023-04-05T11:22:02.410Z,6.77
2023-04-05T11:24:07.719Z,7.90
2023-04-05T11:26:11.175Z,7.07
2023-04-05T11:28:24.384Z,6.70
2023-04-05T11:30:48.739Z,7.77
2023-04-05T11:32:53.487Z,7.27
2023-04-05T11:35:01.064Z,7.15
2023-04-05T11:37:04.454Z,14.37
2023-04-05T11:39:27.205Z,8.03
2023-04-05T11:41:34.374Z,6.90
2023-04-05T11:43:39.361Z,6.53
2023-04-05T11:45:43.557Z,7.63
2023-04-05T11:47:46.840Z,7.60
2023-04-05T11:49:52.488Z,7.67
2023-04-05T11:51:55.775Z,7.82
2023-04-05T11:53:58.794Z,8.03
2023-04-05T11:56:08.335Z,11.57
2023-04-05T11:58:15.528Z,6.50
2023-04-05T12:00:19.967Z,6.43
2023-04-05T12:02:23.290Z,7.67
2023-04-05T12:04:26.541Z,8.20
2023-04-05T12:06:31.495Z,6.87
2023-04-05T12:08:42.042Z,7.10
2023-04-05T12:10:45.668Z,6.70
2023-04-05T12:12:49.324Z,7.30
2023-04-05T12:14:52.503Z,8.63
2023-04-05T12:16:55.787Z,6.90
2023-04-05T12:19:00.040Z,8.10
2023-04-05T12:21:07.065Z,6.90
2023-04-05T12:23:12.402Z,7.33
2023-04-05T12:25:15.993Z,7.17
2023-04-05T12:27:19.139Z,7.43
2023-04-05T12:29:22.237Z,7.13
2023-04-05T12:31:39.139Z,7.20
2023-04-05T12:33:44.377Z,11.00
2023-04-05T12:35:47.532Z,6.90
2023-04-05T12:37:51.592Z,8.47
2023-04-05T12:39:57.098Z,6.80
2023-04-05T12:42:01.100Z,6.90
2023-04-05T12:44:06.697Z,6.70
2023-04-05T12:46:13.554Z,7.50
2023-04-05T12:48:22.121Z,6.83
2023-04-05T12:50:28.341Z,8.83
2023-04-05T12:52:32.193Z,6.70
2023-04-05T12:54:35.576Z,8.73
2023-04-05T12:56:40.357Z,8.50
2023-04-05T12:58:43.406Z,7.37
2023-04-05T13:00:47.389Z,9.33
2023-04-05T13:02:53.410Z,7.03
2023-04-05T13:04:56.672Z,7.33
2023-04-05T13:06:59.771Z,6.60
2023-04-05T13:09:02.925Z,6.17
2023-04-05T13:11:06.114Z,6.07
2023-04-05T13:13:10.622Z,6.90
2023-04-05T13:15:14.317Z,6.50
2023-04-05T13:17:17.351Z,7.07
2023-04-05T13:19:20.786Z,6.17
2023-04-05T13:21:23.926Z,7.10
2023-04-05T13:23:27.030Z,8.73
2023-04-05T13:25:30.144Z,8.93
2023-04-05T13:27:33.302Z,6.70
2023-04-05T13:29:37.730Z,6.90
2023-04-05T13:31:42.010Z,13.30
2023-04-05T13:33:45.214Z,9.47
2023-04-05T13:35:48.966Z,7.00
2023-04-05T13:37:52.031Z,7.60
2023-04-05T13:39:55.120Z,6.53
2023-04-05T13:41:58.337Z,6.87
2023-04-05T13:44:02.855Z,7.17
2023-04-05T13:46:08.485Z,6.77
2023-04-05T13:48:11.660Z,7.23
2023-04-05T13:50:14.792Z,6.27
2023-04-05T13:52:18.090Z,6.47
2023-04-05T13:54:21.169Z,6.23
2023-04-05T13:56:24.278Z,6.60
2023-04-05T13:58:27.322Z,6.13
2023-04-05T14:00:30.467Z,8.87
2023-04-05T14:02:35.271Z,7.00
2023-04-05T14:04:38.782Z,7.60
2023-04-05T14:06:41.864Z,7.40
2023-04-05T14:08:44.831Z,7.90
2023-04-05T14:10:47.966Z,7.80
2023-04-05T14:12:51.175Z,7.63
2023-04-05T14:14:54.340Z,7.20
2023-04-05T14:16:57.549Z,7.37
2023-04-05T14:19:02.087Z,8.33
2023-04-05T14:21:05.778Z,8.53
2023-04-05T14:23:08.947Z,9.30
2023-04-05T14:25:12.151Z,7.37
2023-04-05T14:27:15.425Z,7.40
2023-04-05T14:29:19.191Z,11.53
2023-04-05T14:31:22.485Z,9.03
2023-04-05T14:33:26.634Z,9.43
2023-04-05T14:35:31.361Z,8.50
2023-04-05T14:37:34.680Z,8.57
2023-04-05T14:39:37.816Z,8.30
2023-04-05T14:41:41.174Z,7.90
2023-04-05T14:43:44.417Z,8.70
2023-04-05T14:45:47.752Z,8.50
2023-04-05T14:47:50.975Z,8.97
2023-04-05T14:49:54.264Z,9.53
2023-04-05T14:51:58.955Z,8.07
2023-04-05T14:54:02.253Z,10.20
2023-04-05T14:56:06.075Z,9.57
2023-04-05T14:58:09.344Z,9.53
2023-04-05T15:00:13.555Z,9.40
2023-04-05T15:02:16.898Z,8.47
2023-04-05T15:04:20.085Z,8.00
2023-04-05T15:06:23.323Z,8.10
2023-04-05T15:08:27.855Z,9.13
2023-04-05T15:10:31.192Z,11.47
2023-04-05T15:12:34.519Z,9.93
2023-04-05T15:14:37.840Z,9.47
2023-04-05T15:16:41.096Z,9.83
2023-04-05T15:18:44.322Z,9.90
2023-04-05T15:20:47.566Z,10.00
2023-04-05T15:22:50.788Z,9.37
2023-04-05T15:24:56.581Z,8.63
2023-04-05T15:27:02.228Z,8.97
2023-04-05T15:29:05.869Z,10.57
2023-04-05T15:31:09.124Z,8.77
2023-04-05T15:33:12.427Z,10.10
2023-04-05T15:35:15.785Z,10.30
2023-04-05T15:37:19.403Z,8.03
2023-04-05T15:39:23.140Z,9.87
2023-04-05T15:41:27.763Z,10.40
2023-04-05T15:43:32.505Z,9.87
2023-04-05T15:45:35.698Z,9.60
2023-04-05T15:47:39.789Z,13.73
2023-04-05T15:49:43.463Z,9.80
2023-04-05T15:51:47.230Z,10.57
2023-04-05T15:53:50.447Z,9.77
2023-04-05T15:55:53.791Z,10.37
2023-04-05T15:57:58.393Z,10.47
2023-04-05T16:00:01.767Z,14.60
2023-04-05T16:02:08.054Z,11.60
2023-04-05T16:04:11.514Z,10.27
2023-04-05T16:06:14.856Z,10.30
2023-04-05T16:08:18.104Z,10.07
2023-04-05T16:10:21.427Z,11.50
2023-04-05T16:12:24.642Z,13.33
2023-04-05T16:14:29.461Z,12.20
2023-04-05T16:16:41.984Z,11.20
2023-04-05T16:18:49.047Z,10.97
2023-04-05T16:20:52.215Z,12.40
2023-04-05T16:22:55.957Z,10.47
2023-04-05T16:24:59.373Z,10.77
2023-04-05T16:27:02.701Z,10.50
2023-04-05T16:29:05.958Z,10.33
2023-04-05T16:31:10.656Z,11.17
2023-04-05T16:33:13.959Z,11.70
2023-04-05T16:35:17.169Z,11.87
2023-04-05T16:37:20.843Z,11.07
2023-04-05T16:39:24.177Z,11.87
2023-04-05T16:41:27.470Z,10.90
2023-04-05T16:43:31.290Z,10.07
2023-04-05T16:45:36.439Z,15.33
2023-04-05T16:47:41.350Z,10.00
2023-04-05T16:49:44.612Z,9.53
2023-04-05T16:51:47.919Z,9.30
2023-04-05T16:53:51.167Z,10.50
2023-04-05T16:55:54.359Z,11.10
2023-04-05T16:57:57.801Z,9.70
2023-04-05T17:00:01.020Z,11.63
2023-04-05T17:02:04.363Z,11.07
2023-04-05T17:04:09.111Z,10.47
2023-04-05T17:06:13.398Z,10.43
2023-04-05T17:08:16.659Z,9.67
2023-04-05T17:10:19.869Z,10.00
2023-04-05T17:12:23.085Z,9.40
2023-04-05T17:14:26.751Z,11.27
2023-04-05T17:16:30.120Z,9.53
2023-04-05T17:18:33.280Z,9.50
2023-04-05T17:20:37.936Z,10.37
2023-04-05T17:22:41.500Z,11.10
2023-04-05T17:24:47.060Z,10.87
2023-04-05T17:26:50.201Z,14.50
2023-04-05T17:28:53.446Z,10.00
2023-04-05T17:30:56.956Z,10.13
2023-04-05T17:33:00.489Z,10.80
2023-04-05T17:35:03.708Z,9.23
2023-04-05T17:37:08.370Z,10.03
2023-04-05T17:39:11.500Z,10.03
2023-04-05T17:41:14.772Z,10.37
2023-04-05T17:43:18.028Z,11.30
2023-04-05T17:45:21.256Z,11.03
2023-04-05T17:47:24.782Z,13.73
2023-04-05T17:49:27.998Z,10.43
2023-04-05T17:51:31.147Z,10.07
2023-04-05T17:53:36.025Z,9.17
2023-04-05T17:55:39.128Z,10.30
2023-04-05T17:57:42.181Z,9.60
2023-04-05T17:59:45.349Z,8.93
2023-04-05T18:01:53.459Z,7.73
2023-04-05T18:03:57.058Z,9.10
2023-04-05T18:06:00.284Z,8.30
2023-04-05T18:08:03.472Z,8.83
2023-04-05T18:10:09.023Z,8.63
2023-04-05T18:12:12.235Z,8.97
2023-04-05T18:14:15.544Z,9.20
2023-04-05T18:16:18.855Z,17.10
2023-04-05T18:18:22.483Z,17.07
2023-04-05T18:20:26.048Z,20.50
2023-04-05T18:22:32.521Z,21.83
2023-04-05T18:24:35.893Z,17.63
2023-04-05T18:26:40.508Z,14.70
2023-04-05T18:28:43.756Z,13.23
2023-04-05T18:30:47.311Z,14.90
2023-04-05T18:32:51.746Z,14.10
2023-04-05T18:34:55.002Z,32.10
2023-04-05T18:36:58.395Z,23.47
2023-04-05T18:39:03.414Z,19.23
2023-04-05T18:41:09.206Z,16.50
2023-04-05T18:43:14.608Z,12.43
2023-04-05T18:45:17.925Z,11.63
2023-04-05T18:47:21.463Z,14.87
2023-04-05T18:49:25.068Z,17.23
2023-04-05T18:51:28.635Z,22.27
2023-04-05T18:53:31.890Z,20.80
2023-04-05T18:55:35.131Z,13.80
2023-04-05T18:57:38.423Z,50.27
2023-04-05T18:59:43.032Z,121.80
2023-04-05T19:01:46.397Z,33.13
2023-04-05T19:03:50.499Z,47.53
2023-04-05T19:05:54.372Z,32.63
2023-04-05T19:07:57.683Z,22.73
2023-04-05T19:10:01.281Z,18.37
2023-04-05T19:12:04.845Z,24.70
2023-04-05T19:14:08.202Z,25.52
2023-04-05T19:16:12.822Z,22.17
2023-04-05T19:18:16.163Z,16.50
2023-04-05T19:20:19.515Z,20.60
2023-04-05T19:22:22.969Z,12.30
2023-04-05T19:24:26.525Z,11.37
2023-04-05T19:26:29.802Z,11.70
2023-04-05T19:28:33.051Z,17.77
2023-04-05T19:30:36.725Z,12.13
2023-04-05T19:32:41.702Z,12.83
2023-04-05T19:34:45.197Z,9.82
2023-04-05T19:36:48.533Z,11.98
2023-04-05T19:38:52.133Z,12.83
2023-04-05T19:40:56.433Z,11.50
2023-04-05T19:43:01.904Z,12.55
2023-04-05T19:45:09.124Z,17.60
2023-04-05T19:47:12.394Z,23.17
2023-04-05T19:49:30.583Z,19.53
2023-04-05T19:51:33.845Z,15.73
2023-04-05T19:53:41.757Z,15.32
2023-04-05T19:55:46.500Z,14.00
2023-04-05T19:57:50.608Z,13.37
2023-04-05T19:59:53.937Z,14.90
2023-04-05T20:01:58.108Z,11.75
2023-04-05T20:04:03.013Z,12.02
2023-04-05T20:06:10.019Z,10.45
2023-04-05T20:08:13.489Z,12.93
2023-04-05T20:10:17.203Z,11.65
2023-04-05T20:12:22.541Z,11.98
2023-04-05T20:14:29.039Z,11.50
2023-04-05T20:16:34.104Z,14.15
2023-04-05T20:18:37.564Z,12.93
2023-04-05T20:20:42.224Z,11.52
2023-04-05T20:22:46.883Z,13.30
2023-04-05T20:24:50.399Z,12.55
2023-04-05T20:26:56.764Z,10.95
2023-04-05T20:29:01.301Z,11.38
2023-04-05T20:31:07.006Z,10.32
2023-04-05T20:33:30.428Z,15.55
2023-04-05T20:35:36.231Z,11.25
2023-04-05T20:37:39.460Z,17.20
2023-04-05T20:39:44.170Z,19.88
2023-04-05T20:41:47.659Z,19.33
2023-04-05T20:43:51.120Z,14.65
2023-04-05T20:45:55.006Z,15.40
2023-04-05T20:47:58.359Z,13.88
2023-04-05T20:50:01.627Z,11.55
2023-04-05T20:52:07.676Z,11.90
2023-04-05T20:54:11.395Z,10.85
2023-04-05T20:56:16.095Z,14.00
2023-04-05T20:58:19.278Z,13.75
2023-04-05T21:00:22.483Z,12.70
2023-04-05T21:02:26.601Z,11.70
2023-04-05T21:04:30.238Z,11.35
2023-04-05T21:06:34.265Z,12.70
2023-04-05T21:08:39.024Z,14.93
2023-04-05T21:10:42.423Z,11.70
2023-04-05T21:12:47.040Z,10.90
2023-04-05T21:14:50.387Z,13.43
2023-04-05T21:16:53.565Z,12.82
2023-04-05T21:18:56.712Z,14.25
2023-04-05T21:21:00.651Z,14.27
2023-04-05T21:23:05.001Z,12.93
2023-04-05T21:25:09.167Z,12.73
2023-04-05T21:27:12.400Z,14.02
2023-04-05T21:29:17.027Z,12.50
2023-04-05T21:31:20.346Z,12.00
2023-04-05T21:33:23.733Z,14.98
2023-04-05T21:35:27.105Z,12.18
2023-04-05T21:37:30.346Z,11.30
2023-04-05T21:39:33.564Z,11.20
2023-04-05T21:41:36.751Z,12.88
2023-04-05T21:43:40.050Z,12.43
2023-04-05T21:45:45.945Z,11.15
2023-04-05T21:47:49.243Z,14.65
2023-04-05T21:49:53.453Z,9.70
2023-04-05T21:51:56.654Z,12.98
2023-04-05T21:53:59.862Z,11.93
2023-04-05T21:56:03.104Z,10.80
2023-04-05T21:58:06.369Z,11.00
2023-04-05T22:00:12.061Z,13.98
2023-04-05T22:02:19.589Z,11.07
2023-04-05T22:04:24.683Z,14.13
2023-04-05T22:06:29.347Z,12.68
2023-04-05T22:08:34.364Z,12.63
2023-04-05T22:10:37.730Z,12.15
2023-04-05T22:12:41.296Z,11.25
2023-04-05T22:14:44.517Z,11.57
2023-04-05T22:16:48.060Z,11.13
2023-04-05T22:18:53.374Z,10.50
2023-04-05T22:20:56.533Z,11.30
2023-04-05T22:23:00.653Z,10.30
2023-04-05T22:25:03.868Z,10.35
2023-04-05T22:27:07.107Z,13.00
2023-04-05T22:29:10.604Z,13.65
2023-04-05T22:31:14.835Z,11.40
2023-04-05T22:33:18.116Z,13.23
2023-04-05T22:35:22.606Z,11.23
2023-04-05T22:37:26.026Z,10.45
2023-04-05T22:39:29.293Z,12.70
2023-04-05T22:41:32.604Z,11.10
2023-04-05T22:43:35.902Z,13.32
2023-04-05T22:45:39.390Z,13.00
2023-04-05T22:47:42.632Z,12.60
2023-04-05T22:49:46.006Z,15.52
2023-04-05T22:51:50.565Z,12.65
2023-04-05T22:53:53.794Z,15.80
2023-04-05T22:55:56.969Z,14.13
2023-04-05T22:58:00.171Z,12.57
2023-04-05T23:00:03.822Z,11.65
2023-04-05T23:02:07.009Z,11.02
2023-04-05T23:04:10.687Z,14.32
2023-04-05T23:06:15.082Z,11.07
2023-04-05T23:08:19.658Z,12.63
2023-04-05T23:10:23.029Z,11.88
2023-04-05T23:12:26.626Z,11.30
2023-04-05T23:14:29.875Z,12.40
2023-04-05T23:16:33.068Z,10.98
2023-04-05T23:18:36.502Z,13.13
2023-04-05T23:20:39.736Z,12.30
2023-04-05T23:22:43.281Z,12.02
2023-04-05T23:24:47.927Z,11.35
2023-04-05T23:26:51.239Z,10.63
2023-04-05T23:28:54.516Z,12.88
2023-04-05T23:30:57.715Z,12.18
2023-04-05T23:33:01.042Z,12.50
2023-04-05T23:35:04.395Z,12.30
2023-04-05T23:37:07.746Z,10.93
2023-04-05T23:39:11.036Z,12.05
2023-04-05T23:41:15.623Z,10.40
2023-04-05T23:43:18.818Z,10.88
2023-04-05T23:45:22.034Z,11.68
2023-04-05T23:47:25.507Z,12.65
2023-04-05T23:49:28.926Z,13.35
2023-04-05T23:51:32.825Z,11.30
2023-04-05T23:53:36.381Z,13.27
2023-04-05T23:55:41.746Z,12.30
2023-04-05T23:57:46.432Z,10.75
2023-04-05T23:59:49.591Z,12.13
